createdAt,value
2022-10-11T00:00:33.945Z,17.50
2022-10-11T00:03:36.915Z,18.20
2022-10-11T00:06:39.808Z,14.43
2022-10-11T00:09:42.817Z,15.80
2022-10-11T00:12:46.596Z,16.55
2022-10-11T00:15:49.952Z,16.50
2022-10-11T00:18:52.636Z,17.62
2022-10-11T00:21:55.525Z,20.43
2022-10-11T00:24:59.357Z,15.07
2022-10-11T00:28:02.292Z,14.98
2022-10-11T00:31:13.625Z,15.77
2022-10-11T00:34:18.255Z,21.58
2022-10-11T00:37:21.008Z,16.33
2022-10-11T00:40:24.874Z,19.93
2022-10-11T00:43:29.953Z,14.60
2022-10-11T00:46:33.116Z,16.25
2022-10-11T00:49:44.215Z,18.20
2022-10-11T00:52:54.853Z,16.73
2022-10-11T00:56:12.691Z,16.87
2022-10-11T00:59:21.859Z,17.58
2022-10-11T01:02:25.123Z,18.33
2022-10-11T01:05:30.124Z,18.02
2022-10-11T01:08:34.181Z,19.03
2022-10-11T01:11:41.543Z,17.70
2022-10-11T01:14:56.097Z,19.77
2022-10-11T01:18:22.984Z,18.23
2022-10-11T01:21:49.045Z,19.35
2022-10-11T01:25:13.206Z,24.30
2022-10-11T01:28:40.497Z,19.60
2022-10-11T01:31:54.145Z,16.15
2022-10-11T01:35:06.998Z,19.10
2022-10-11T01:38:31.703Z,16.35
2022-10-11T01:41:39.438Z,14.93
2022-10-11T01:44:46.114Z,16.47
2022-10-11T01:48:01.616Z,18.25
2022-10-11T01:51:04.736Z,17.77
2022-10-11T01:54:10.159Z,16.10
2022-10-11T01:57:31.249Z,16.87
2022-10-11T02:00:52.589Z,16.47
2022-10-11T02:04:08.115Z,17.05
2022-10-11T02:07:37.765Z,18.92
2022-10-11T02:10:50.934Z,21.60
2022-10-11T02:14:02.111Z,19.50
2022-10-11T02:17:13.076Z,18.73
2022-10-11T02:20:21.130Z,20.55
2022-10-11T02:23:32.721Z,21.15
2022-10-11T02:26:37.384Z,18.95
2022-10-11T02:29:43.937Z,20.77
2022-10-11T02:32:49.245Z,19.80
2022-10-11T02:35:58.702Z,15.07
2022-10-11T02:39:08.489Z,16.62
2022-10-11T02:42:23.954Z,17.08
2022-10-11T02:45:42.281Z,16.30
2022-10-11T02:48:45.161Z,15.33
2022-10-11T02:51:47.780Z,18.00
2022-10-11T02:54:50.758Z,18.85
2022-10-11T02:57:54.430Z,16.33
2022-10-11T03:00:57.411Z,14.83
2022-10-11T03:04:02.410Z,18.73
2022-10-11T03:07:05.591Z,16.37
2022-10-11T03:10:10.359Z,23.17
2022-10-11T03:13:18.157Z,23.42
2022-10-11T03:16:21.559Z,17.43
2022-10-11T03:19:24.452Z,20.43
2022-10-11T03:22:27.087Z,24.63
2022-10-11T03:25:30.098Z,19.85
2022-10-11T03:28:32.706Z,16.75
2022-10-11T03:31:35.802Z,18.23
2022-10-11T03:34:38.399Z,34.50
2022-10-11T03:37:41.327Z,48.10
2022-10-11T03:40:44.378Z,39.08
2022-10-11T03:43:47.315Z,38.25
2022-10-11T03:46:49.945Z,52.27
2022-10-11T03:49:53.289Z,50.60
2022-10-11T03:52:55.989Z,31.85
2022-10-11T03:55:58.908Z,40.97
2022-10-11T03:59:02.389Z,42.35
2022-10-11T04:02:05.425Z,48.73
2022-10-11T04:05:08.707Z,41.10
2022-10-11T04:08:12.481Z,31.35
2022-10-11T04:11:16.122Z,27.08
2022-10-11T04:14:18.794Z,25.25
2022-10-11T04:17:22.193Z,28.17
2022-10-11T04:20:24.943Z,26.57
2022-10-11T04:23:28.125Z,40.40
2022-10-11T04:26:31.121Z,55.22
2022-10-11T04:29:34.149Z,37.97
2022-10-11T04:32:36.982Z,54.10
2022-10-11T04:35:40.296Z,43.63
2022-10-11T04:38:43.021Z,36.13
2022-10-11T04:41:46.118Z,24.12
2022-10-11T04:44:48.948Z,26.67
2022-10-11T04:47:51.919Z,32.67
2022-10-11T04:50:54.659Z,28.20
2022-10-11T04:53:57.632Z,28.23
2022-10-11T04:57:00.422Z,33.70
2022-10-11T05:00:05.070Z,30.92
2022-10-11T05:03:07.739Z,28.93
2022-10-11T05:06:11.337Z,27.10
2022-10-11T05:09:14.396Z,26.15
2022-10-11T05:12:17.752Z,21.85
2022-10-11T05:15:20.480Z,21.60
2022-10-11T05:18:24.327Z,18.87
2022-10-11T05:21:28.860Z,20.40
2022-10-11T05:24:31.923Z,22.73
2022-10-11T05:27:34.670Z,21.58
2022-10-11T05:30:37.694Z,20.08
2022-10-11T05:33:41.024Z,20.77
2022-10-11T05:36:45.139Z,23.87
2022-10-11T05:39:47.701Z,22.48
2022-10-11T05:42:50.603Z,22.10
2022-10-11T05:45:53.248Z,20.75
2022-10-11T05:48:56.234Z,22.00
2022-10-11T05:51:59.310Z,25.47
2022-10-11T05:55:03.749Z,24.35
2022-10-11T05:58:07.946Z,22.80
2022-10-11T06:01:27.701Z,23.98
2022-10-11T06:04:31.444Z,25.10
2022-10-11T06:07:36.634Z,22.77
2022-10-11T06:10:40.613Z,22.73
2022-10-11T06:13:44.524Z,29.75
2022-10-11T06:16:47.485Z,28.73
2022-10-11T06:19:51.189Z,22.73
2022-10-11T06:22:54.963Z,27.00
2022-10-11T06:26:07.323Z,22.75
2022-10-11T06:29:10.931Z,28.17
2022-10-11T06:32:13.609Z,27.33
2022-10-11T06:35:18.025Z,29.13
2022-10-11T06:38:21.864Z,32.10
2022-10-11T06:41:27.324Z,33.25
2022-10-11T06:44:30.037Z,33.17
2022-10-11T06:47:32.979Z,27.62
2022-10-11T06:50:58.486Z,24.90
2022-10-11T06:54:03.894Z,25.57
2022-10-11T06:57:06.557Z,24.75
2022-10-11T07:00:12.834Z,23.77
2022-10-11T07:03:15.638Z,24.27
2022-10-11T07:06:21.090Z,20.50
2022-10-11T07:09:23.842Z,23.30
2022-10-11T07:12:26.776Z,23.40
2022-10-11T07:15:29.470Z,20.08
2022-10-11T07:18:33.028Z,18.65
2022-10-11T07:21:38.624Z,19.17
2022-10-11T07:24:41.521Z,17.53
2022-10-11T07:27:44.141Z,18.02
2022-10-11T07:30:47.643Z,15.88
2022-10-11T07:33:50.262Z,14.13
2022-10-11T07:36:53.218Z,16.20
2022-10-11T07:39:57.081Z,17.63
2022-10-11T07:43:01.068Z,14.30
2022-10-11T07:46:05.916Z,18.10
2022-10-11T07:49:09.118Z,15.10
2022-10-11T07:52:12.937Z,14.97
2022-10-11T07:55:16.305Z,14.23
2022-10-11T07:58:18.855Z,16.55
2022-10-11T08:01:22.425Z,21.08
2022-10-11T08:04:25.487Z,16.65
2022-10-11T08:07:29.950Z,16.70
2022-10-11T08:10:38.941Z,18.40
2022-10-11T08:13:41.689Z,15.32
2022-10-11T08:16:44.988Z,17.10
2022-10-11T08:19:47.728Z,17.45
2022-10-11T08:22:50.665Z,15.50
2022-10-11T08:25:58.312Z,18.00
2022-10-11T08:29:05.409Z,16.55
2022-10-11T08:32:12.093Z,14.68
2022-10-11T08:35:17.560Z,19.52
2022-10-11T08:38:21.490Z,16.57
2022-10-11T08:41:33.585Z,17.17
2022-10-11T08:48:18.731Z,14.55
2022-10-11T08:51:27.738Z,12.85
2022-10-11T08:54:44.699Z,15.33
2022-10-11T08:57:53.965Z,21.60
2022-10-11T09:00:58.141Z,13.35
2022-10-11T09:04:00.800Z,11.85
2022-10-11T09:07:40.912Z,17.45
2022-10-11T09:10:46.307Z,10.80
2022-10-11T09:14:01.320Z,11.57
2022-10-11T09:17:09.896Z,15.00
2022-10-11T09:20:15.646Z,16.15
2022-10-11T09:23:40.141Z,12.60
2022-10-11T09:26:56.885Z,11.00
2022-10-11T09:30:16.638Z,14.57
2022-10-11T09:33:34.909Z,11.98
2022-10-11T09:37:02.007Z,18.25
2022-10-11T09:40:11.051Z,12.35
2022-10-11T09:43:14.874Z,11.90
2022-10-11T09:46:41.317Z,20.40
2022-10-11T09:49:58.991Z,12.35
2022-10-11T09:53:07.988Z,13.50
2022-10-11T09:56:11.418Z,12.35
2022-10-11T09:59:35.292Z,11.07
2022-10-11T10:02:47.693Z,9.57
2022-10-11T10:06:05.568Z,9.32
2022-10-11T10:09:31.156Z,11.80
2022-10-11T10:12:34.392Z,9.77
2022-10-11T10:15:45.340Z,12.23
2022-10-11T10:19:16.041Z,10.00
2022-10-11T10:22:30.221Z,16.17
2022-10-11T10:25:42.304Z,11.95
2022-10-11T10:29:15.016Z,12.63
2022-10-11T10:32:28.120Z,12.33
2022-10-11T10:35:46.361Z,11.87
2022-10-11T10:38:59.772Z,12.60
2022-10-11T10:42:05.351Z,11.00
2022-10-11T10:45:20.077Z,10.43
2022-10-11T10:48:53.762Z,14.40
2022-10-11T10:52:28.022Z,10.27
2022-10-11T10:55:46.699Z,16.37
2022-10-11T10:59:19.872Z,10.45
2022-10-11T11:02:40.271Z,9.77
2022-10-11T11:05:52.780Z,12.77
2022-10-11T11:09:07.150Z,9.97
2022-10-11T11:12:24.516Z,10.20
2022-10-11T11:16:00.100Z,9.65
2022-10-11T11:19:03.572Z,10.38
2022-10-11T11:22:15.137Z,12.37
2022-10-11T11:25:27.577Z,7.43
2022-10-11T11:28:45.501Z,9.60
2022-10-11T11:32:19.436Z,11.80
2022-10-11T11:35:31.499Z,10.73
2022-10-11T11:39:09.826Z,10.67
2022-10-11T11:42:21.336Z,11.20
2022-10-11T11:45:33.826Z,13.82
2022-10-11T11:48:38.979Z,10.48
2022-10-11T11:51:45.531Z,15.23
2022-10-11T11:55:04.003Z,11.07
2022-10-11T11:58:16.303Z,9.43
2022-10-11T12:01:21.540Z,10.38
2022-10-11T12:04:36.140Z,10.70
2022-10-11T12:08:01.599Z,11.27
2022-10-11T12:11:05.025Z,10.77
2022-10-11T12:14:35.059Z,10.67
2022-10-11T12:17:59.353Z,13.57
2022-10-11T12:21:09.647Z,10.70
2022-10-11T12:24:23.419Z,15.52
2022-10-11T12:27:44.584Z,12.13
2022-10-11T12:30:47.396Z,9.93
2022-10-11T12:33:54.904Z,12.32
2022-10-11T12:37:04.531Z,15.10
2022-10-11T12:40:42.043Z,10.15
2022-10-11T12:43:50.692Z,11.97
2022-10-11T12:46:54.609Z,9.47
2022-10-11T12:50:11.879Z,10.98
2022-10-11T12:54:02.278Z,11.52
2022-10-11T12:57:46.591Z,12.30
2022-10-11T13:00:52.630Z,13.73
2022-10-11T13:04:03.775Z,10.37
2022-10-11T13:07:15.239Z,10.43
2022-10-11T13:10:25.231Z,9.50
2022-10-11T13:13:33.667Z,10.35
2022-10-11T13:16:48.837Z,10.03
2022-10-11T13:20:00.613Z,11.87
2022-10-11T13:23:03.566Z,11.43
2022-10-11T13:26:08.128Z,11.52
2022-10-11T13:29:18.518Z,13.48
2022-10-11T13:32:27.529Z,11.20
2022-10-11T13:35:35.473Z,11.37
2022-10-11T13:38:38.133Z,10.90
2022-10-11T13:41:42.310Z,8.55
2022-10-11T13:44:46.533Z,11.27
2022-10-11T13:47:51.708Z,12.70
2022-10-11T13:51:06.799Z,10.73
2022-10-11T13:54:13.470Z,11.73
2022-10-11T13:57:16.717Z,11.48
2022-10-11T14:00:28.725Z,10.18
2022-10-11T14:03:47.979Z,10.73
2022-10-11T14:07:02.789Z,13.03
2022-10-11T14:10:07.429Z,12.23
2022-10-11T14:13:46.588Z,12.98
2022-10-11T14:17:05.323Z,10.50
2022-10-11T14:20:17.016Z,12.23
2022-10-11T14:23:21.285Z,11.90
2022-10-11T14:26:25.717Z,10.40
2022-10-11T14:29:33.695Z,11.27
2022-10-11T14:32:36.720Z,14.82
2022-10-11T14:35:42.479Z,16.43
2022-10-11T14:38:47.420Z,14.87
2022-10-11T14:41:51.425Z,19.52
2022-10-11T14:44:54.361Z,28.00
2022-10-11T14:47:57.401Z,16.45
2022-10-11T14:51:03.282Z,15.00
2022-10-11T14:54:06.954Z,22.10
2022-10-11T14:57:12.494Z,19.65
2022-10-11T15:00:20.813Z,16.58
2022-10-11T15:03:23.356Z,24.37
2022-10-11T15:06:30.286Z,25.53
2022-10-11T15:09:32.946Z,28.10
2022-10-11T15:12:37.463Z,26.70
2022-10-11T15:15:43.882Z,32.90
2022-10-11T15:18:52.125Z,31.23
2022-10-11T15:21:54.852Z,27.50
2022-10-11T15:25:00.430Z,22.33
2022-10-11T15:28:03.502Z,31.40
2022-10-11T15:31:06.518Z,32.50
2022-10-11T15:34:09.251Z,30.35
2022-10-11T15:37:12.296Z,24.30
2022-10-11T15:40:22.304Z,40.40
2022-10-11T15:43:27.622Z,36.00
2022-10-11T15:46:30.457Z,61.97
2022-10-11T15:49:33.558Z,50.28
2022-10-11T15:52:37.001Z,17.73
2022-10-11T15:55:52.171Z,19.23
2022-10-11T15:58:54.743Z,29.15
2022-10-11T16:01:57.774Z,40.28
2022-10-11T16:05:00.687Z,59.15
2022-10-11T16:08:04.018Z,62.07
2022-10-11T16:11:08.878Z,24.00
2022-10-11T16:14:11.559Z,19.48
2022-10-11T16:17:14.393Z,18.90
2022-10-11T16:20:22.388Z,21.73
2022-10-11T16:23:25.379Z,23.80
2022-10-11T16:26:28.282Z,24.17
2022-10-11T16:29:31.330Z,25.45
2022-10-11T16:32:34.563Z,26.30
2022-10-11T16:35:43.100Z,21.25
2022-10-11T16:38:45.698Z,37.67
2022-10-11T16:41:48.697Z,36.30
2022-10-11T16:44:51.561Z,41.67
2022-10-11T16:47:54.481Z,37.17
2022-10-11T16:51:05.610Z,39.70
2022-10-11T16:54:08.534Z,32.93
2022-10-11T16:57:12.870Z,31.00
2022-10-11T17:00:16.751Z,35.50
2022-10-11T17:03:19.438Z,37.17
2022-10-11T17:06:23.121Z,39.92
2022-10-11T17:09:26.203Z,42.60
2022-10-11T17:12:29.513Z,46.50
2022-10-11T17:15:32.117Z,48.13
2022-10-11T17:18:35.169Z,45.20
2022-10-11T17:21:38.492Z,46.55
2022-10-11T17:24:41.486Z,41.80
2022-10-11T17:27:44.077Z,40.97
2022-10-11T17:30:55.459Z,38.88
2022-10-11T17:34:00.182Z,36.92
2022-10-11T17:37:03.633Z,40.95
2022-10-11T17:40:06.770Z,38.83
2022-10-11T17:43:10.760Z,38.07
2022-10-11T17:46:15.655Z,31.90
2022-10-11T17:49:18.860Z,29.23
2022-10-11T17:52:21.628Z,29.65
2022-10-11T17:55:24.514Z,28.07
2022-10-11T17:58:28.859Z,28.17
2022-10-11T18:01:32.563Z,26.30
2022-10-11T18:04:35.897Z,51.47
2022-10-11T18:07:38.597Z,38.08
2022-10-11T18:10:46.725Z,30.77
2022-10-11T18:13:52.136Z,32.87
2022-10-11T18:16:56.561Z,34.38
2022-10-11T18:20:00.611Z,35.65
2022-10-11T18:23:05.094Z,46.78
2022-10-11T18:26:13.547Z,42.17
2022-10-11T18:29:18.031Z,44.93
2022-10-11T18:32:21.109Z,47.92
2022-10-11T18:35:24.290Z,42.22
2022-10-11T18:38:27.059Z,44.72
2022-10-11T18:41:34.200Z,38.13
2022-10-11T18:44:37.010Z,45.13
2022-10-11T18:47:40.303Z,43.22
2022-10-11T18:50:43.259Z,49.53
2022-10-11T18:53:47.300Z,58.40
2022-10-11T18:56:51.812Z,62.07
2022-10-11T18:59:55.134Z,68.73
2022-10-11T19:02:57.792Z,59.92
2022-10-11T19:06:18.405Z,68.57
2022-10-11T19:09:25.432Z,67.78
2022-10-11T19:12:28.527Z,54.70
2022-10-11T19:15:33.651Z,55.43
2022-10-11T19:18:41.701Z,54.03
2022-10-11T19:21:49.262Z,47.75
2022-10-11T19:24:52.588Z,48.05
2022-10-11T19:27:55.725Z,45.70
2022-10-11T19:31:10.021Z,39.60
2022-10-11T19:34:15.943Z,41.88
2022-10-11T19:37:20.268Z,41.92
2022-10-11T19:40:23.097Z,42.40
2022-10-11T19:43:26.168Z,43.77
2022-10-11T19:46:50.348Z,35.50
2022-10-11T19:49:52.447Z,35.08
2022-10-11T19:52:55.105Z,39.72
2022-10-11T19:56:10.323Z,34.33
2022-10-11T19:59:13.728Z,37.43
2022-10-11T20:02:17.944Z,41.17
2022-10-11T20:05:21.723Z,40.72
2022-10-11T20:08:24.340Z,29.17
2022-10-11T20:11:27.632Z,36.15
2022-10-11T20:14:30.487Z,35.27
2022-10-11T20:17:51.338Z,32.87
2022-10-11T20:20:55.981Z,29.80
2022-10-11T20:24:04.141Z,30.92
2022-10-11T20:27:06.910Z,31.08
2022-10-11T20:30:11.292Z,31.27
2022-10-11T20:33:13.851Z,31.37
2022-10-11T20:36:19.569Z,34.08
2022-10-11T20:39:22.160Z,27.42
2022-10-11T20:42:29.698Z,32.58
2022-10-11T20:45:32.691Z,28.23
2022-10-11T20:48:37.019Z,35.33
2022-10-11T20:51:42.009Z,32.35
2022-10-11T20:54:44.899Z,33.40
2022-10-11T20:57:48.287Z,29.98
2022-10-11T21:00:52.145Z,31.43
2022-10-11T21:03:57.291Z,33.40
2022-10-11T21:07:00.194Z,31.55
2022-10-11T21:10:02.785Z,30.92
2022-10-11T21:13:05.833Z,34.15
2022-10-11T21:16:13.560Z,36.27
2022-10-11T21:19:16.488Z,38.47
2022-10-11T21:22:19.485Z,31.83
2022-10-11T21:25:22.411Z,32.30
2022-10-11T21:28:25.135Z,31.12
2022-10-11T21:31:32.881Z,34.03
2022-10-11T21:34:36.734Z,33.57
2022-10-11T21:37:39.831Z,33.00
2022-10-11T21:40:42.553Z,31.40
2022-10-11T21:43:47.731Z,32.38
2022-10-11T21:47:07.384Z,30.93
2022-10-11T21:50:10.916Z,34.67
2022-10-11T21:53:14.836Z,31.35
2022-10-11T21:56:18.432Z,36.20
2022-10-11T21:59:21.084Z,38.28
2022-10-11T22:02:25.574Z,34.93
2022-10-11T22:05:28.438Z,34.37
2022-10-11T22:08:31.604Z,38.95
2022-10-11T22:11:34.833Z,36.50
2022-10-11T22:14:37.433Z,36.58
2022-10-11T22:17:40.313Z,35.13
2022-10-11T22:20:42.984Z,33.80
2022-10-11T22:23:48.664Z,39.10
2022-10-11T22:26:51.255Z,36.95
2022-10-11T22:29:54.084Z,38.90
2022-10-11T22:32:57.121Z,32.93
2022-10-11T22:36:01.906Z,38.47
2022-10-11T22:39:08.397Z,37.97
2022-10-11T22:42:11.546Z,36.33
2022-10-11T22:45:14.119Z,35.97
2022-10-11T22:48:17.069Z,36.93
2022-10-11T22:51:20.659Z,34.80
2022-10-11T22:54:23.684Z,41.22
2022-10-11T22:57:26.280Z,32.45
2022-10-11T23:00:29.312Z,35.78
2022-10-11T23:03:32.697Z,41.03
2022-10-11T23:06:35.700Z,36.67
2022-10-11T23:09:38.262Z,37.25
2022-10-11T23:12:41.322Z,35.47
2022-10-11T23:15:43.944Z,34.92
2022-10-11T23:18:46.796Z,36.73
2022-10-11T23:21:49.535Z,36.67
2022-10-11T23:24:53.562Z,35.00
2022-10-11T23:27:56.183Z,34.88
2022-10-11T23:30:59.136Z,34.33
2022-10-11T23:34:01.734Z,37.43
2022-10-11T23:37:05.409Z,34.87
2022-10-11T23:40:11.330Z,33.08
2022-10-11T23:43:14.350Z,32.78
2022-10-11T23:46:17.092Z,33.47
2022-10-11T23:49:19.946Z,32.93
2022-10-11T23:52:22.539Z,32.57
2022-10-11T23:55:25.435Z,33.13
2022-10-11T23:58:28.074Z,36.40
